sensor_id;sensor_type;location;lat;lon;timestamp;temperature;humidity
1778;DHT22;886;50.082;8.222;2023-03-31T00:00:22;13.00;99.90
1778;DHT22;886;50.082;8.222;2023-03-31T00:02:48;13.00;99.90
1778;DHT22;886;50.082;8.222;2023-03-31T00:05:16;13.00;99.90
1778;DHT22;886;50.082;8.222;2023-03-31T00:07:44;12.90;99.90
1778;DHT22;886;50.082;8.222;2023-03-31T00:10:11;12.80;99.90
1778;DHT22;886;50.082;8.222;2023-03-31T00:12:45;12.80;99.90
1778;DHT22;886;50.082;8.222;2023-03-31T00:15:12;12.80;99.90
1778;DHT22;886;50.082;8.222;2023-03-31T00:17:40;12.80;99.90
1778;DHT22;886;50.082;8.222;2023-03-31T00:20:07;12.80;99.90
1778;DHT22;886;50.082;8.222;2023-03-31T00:22:38;12.80;99.90
1778;DHT22;886;50.082;8.222;2023-03-31T00:25:08;12.80;99.90
1778;DHT22;886;50.082;8.222;2023-03-31T00:27:36;12.70;99.90
1778;DHT22;886;50.082;8.222;2023-03-31T00:30:06;12.80;99.90
1778;DHT22;886;50.082;8.222;2023-03-31T00:32:33;12.80;99.90
1778;DHT22;886;50.082;8.222;2023-03-31T00:35:01;12.80;99.90
1778;DHT22;886;50.082;8.222;2023-03-31T00:37:28;12.80;99.90
1778;DHT22;886;50.082;8.222;2023-03-31T00:39:56;12.80;99.90
1778;DHT22;886;50.082;8.222;2023-03-31T00:42:23;12.60;99.90
1778;DHT22;886;50.082;8.222;2023-03-31T00:48:02;12.50;99.90
1778;DHT22;886;50.082;8.222;2023-03-31T00:50:34;12.60;99.90
1778;DHT22;886;50.082;8.222;2023-03-31T00:53:06;12.60;99.90
1778;DHT22;886;50.082;8.222;2023-03-31T00:55:38;12.60;99.90
1778;DHT22;886;50.082;8.222;2023-03-31T00:58:07;12.60;99.90
1778;DHT22;886;50.082;8.222;2023-03-31T01:00:35;12.60;99.90
1778;DHT22;886;50.082;8.222;2023-03-31T01:03:05;12.60;99.90
1778;DHT22;886;50.082;8.222;2023-03-31T01:05:37;12.50;99.90
1778;DHT22;886;50.082;8.222;2023-03-31T01:08:06;12.50;99.90
1778;DHT22;886;50.082;8.222;2023-03-31T01:10:38;12.50;99.90
1778;DHT22;886;50.082;8.222;2023-03-31T01:13:08;12.50;99.90
1778;DHT22;886;50.082;8.222;2023-03-31T01:15:36;12.50;99.90
1778;DHT22;886;50.082;8.222;2023-03-31T01:18:05;12.50;99.90
1778;DHT22;886;50.082;8.222;2023-03-31T01:20:36;12.50;99.90
1778;DHT22;886;50.082;8.222;2023-03-31T01:26:35;12.20;99.90
1778;DHT22;886;50.082;8.222;2023-03-31T01:38:37;12.30;99.90
1778;DHT22;886;50.082;8.222;2023-03-31T01:44:07;12.10;99.90
1778;DHT22;886;50.082;8.222;2023-03-31T01:46:36;12.00;99.90
1778;DHT22;886;50.082;8.222;2023-03-31T01:49:11;12.00;99.90
1778;DHT22;886;50.082;8.222;2023-03-31T01:51:45;12.10;99.90
1778;DHT22;886;50.082;8.222;2023-03-31T01:54:18;12.10;99.90
1778;DHT22;886;50.082;8.222;2023-03-31T01:56:51;12.10;99.90
1778;DHT22;886;50.082;8.222;2023-03-31T01:59:24;12.00;99.90
1778;DHT22;886;50.082;8.222;2023-03-31T02:01:56;12.10;99.90
1778;DHT22;886;50.082;8.222;2023-03-31T02:04:28;12.20;99.90
1778;DHT22;886;50.082;8.222;2023-03-31T02:07:01;12.00;99.90
1778;DHT22;886;50.082;8.222;2023-03-31T02:09:32;12.00;99.90
1778;DHT22;886;50.082;8.222;2023-03-31T02:12:05;12.00;99.90
1778;DHT22;886;50.082;8.222;2023-03-31T02:14:35;12.00;99.90
1778;DHT22;886;50.082;8.222;2023-03-31T02:17:06;12.00;99.90
1778;DHT22;886;50.082;8.222;2023-03-31T02:19:39;12.00;99.90
1778;DHT22;886;50.082;8.222;2023-03-31T02:22:08;12.00;99.90
1778;DHT22;886;50.082;8.222;2023-03-31T02:24:37;12.00;99.90
1778;DHT22;886;50.082;8.222;2023-03-31T02:27:13;12.00;99.90
1778;DHT22;886;50.082;8.222;2023-03-31T02:29:42;11.80;99.90
1778;DHT22;886;50.082;8.222;2023-03-31T02:32:13;11.90;99.90
1778;DHT22;886;50.082;8.222;2023-03-31T02:34:42;11.90;99.90
1778;DHT22;886;50.082;8.222;2023-03-31T02:37:27;11.90;99.90
1778;DHT22;886;50.082;8.222;2023-03-31T02:39:57;12.00;99.90
1778;DHT22;886;50.082;8.222;2023-03-31T02:42:27;12.00;99.90
1778;DHT22;886;50.082;8.222;2023-03-31T02:44:53;11.90;99.90
1778;DHT22;886;50.082;8.222;2023-03-31T02:47:21;11.90;99.90
1778;DHT22;886;50.082;8.222;2023-03-31T02:49:51;11.80;99.90
1778;DHT22;886;50.082;8.222;2023-03-31T02:52:34;11.80;99.90
1778;DHT22;886;50.082;8.222;2023-03-31T02:55:27;11.80;99.90
1778;DHT22;886;50.082;8.222;2023-03-31T03:01:13;11.90;99.90
1778;DHT22;886;50.082;8.222;2023-03-31T03:03:49;12.00;99.90
1778;DHT22;886;50.082;8.222;2023-03-31T03:06:30;12.00;99.90
1778;DHT22;886;50.082;8.222;2023-03-31T03:09:09;12.00;99.90
1778;DHT22;886;50.082;8.222;2023-03-31T03:11:45;12.10;99.90
1778;DHT22;886;50.082;8.222;2023-03-31T03:14:22;12.00;99.90
1778;DHT22;886;50.082;8.222;2023-03-31T03:16:57;11.90;99.90
1778;DHT22;886;50.082;8.222;2023-03-31T03:19:26;11.90;99.90
1778;DHT22;886;50.082;8.222;2023-03-31T03:21:53;11.80;99.90
1778;DHT22;886;50.082;8.222;2023-03-31T03:24:21;11.80;99.90
1778;DHT22;886;50.082;8.222;2023-03-31T03:26:48;11.60;99.90
1778;DHT22;886;50.082;8.222;2023-03-31T03:29:17;11.70;99.90
1778;DHT22;886;50.082;8.222;2023-03-31T03:31:44;11.70;99.90
1778;DHT22;886;50.082;8.222;2023-03-31T03:34:11;11.80;99.90
1778;DHT22;886;50.082;8.222;2023-03-31T03:36:39;11.80;99.90
1778;DHT22;886;50.082;8.222;2023-03-31T03:39:06;12.00;99.90
1778;DHT22;886;50.082;8.222;2023-03-31T03:41:34;11.90;99.90
1778;DHT22;886;50.082;8.222;2023-03-31T03:44:01;11.80;99.90
1778;DHT22;886;50.082;8.222;2023-03-31T03:46:29;11.70;99.90
1778;DHT22;886;50.082;8.222;2023-03-31T03:48:57;11.70;99.90
1778;DHT22;886;50.082;8.222;2023-03-31T03:51:24;11.70;99.90
1778;DHT22;886;50.082;8.222;2023-03-31T03:53:51;11.60;99.90
1778;DHT22;886;50.082;8.222;2023-03-31T03:56:18;11.60;99.90
1778;DHT22;886;50.082;8.222;2023-03-31T03:58:45;11.70;99.90
1778;DHT22;886;50.082;8.222;2023-03-31T04:01:12;11.70;99.90
1778;DHT22;886;50.082;8.222;2023-03-31T04:03:41;11.70;99.90
1778;DHT22;886;50.082;8.222;2023-03-31T04:06:08;11.60;99.90
1778;DHT22;886;50.082;8.222;2023-03-31T04:08:35;11.60;99.90
1778;DHT22;886;50.082;8.222;2023-03-31T04:11:03;11.70;99.90
1778;DHT22;886;50.082;8.222;2023-03-31T04:13:35;11.60;99.90
1778;DHT22;886;50.082;8.222;2023-03-31T04:16:03;11.60;99.90
1778;DHT22;886;50.082;8.222;2023-03-31T04:18:31;11.60;99.90
1778;DHT22;886;50.082;8.222;2023-03-31T04:20:59;11.60;99.90
1778;DHT22;886;50.082;8.222;2023-03-31T04:23:38;11.60;99.90
1778;DHT22;886;50.082;8.222;2023-03-31T04:26:13;11.50;99.90
1778;DHT22;886;50.082;8.222;2023-03-31T04:28:41;11.60;99.90
1778;DHT22;886;50.082;8.222;2023-03-31T04:31:16;11.60;99.90
1778;DHT22;886;50.082;8.222;2023-03-31T04:33:51;11.50;99.90
1778;DHT22;886;50.082;8.222;2023-03-31T04:36:20;11.50;99.90
1778;DHT22;886;50.082;8.222;2023-03-31T04:38:48;11.50;99.90
1778;DHT22;886;50.082;8.222;2023-03-31T04:41:23;11.60;99.90
1778;DHT22;886;50.082;8.222;2023-03-31T04:43:50;11.70;99.90
1778;DHT22;886;50.082;8.222;2023-03-31T04:46:17;11.70;99.90
1778;DHT22;886;50.082;8.222;2023-03-31T04:48:44;11.70;99.90
1778;DHT22;886;50.082;8.222;2023-03-31T04:51:12;11.70;99.90
1778;DHT22;886;50.082;8.222;2023-03-31T04:53:42;11.60;99.90
1778;DHT22;886;50.082;8.222;2023-03-31T04:56:09;11.70;99.90
1778;DHT22;886;50.082;8.222;2023-03-31T04:58:36;11.60;99.90
1778;DHT22;886;50.082;8.222;2023-03-31T05:01:04;11.60;99.90
1778;DHT22;886;50.082;8.222;2023-03-31T05:03:34;11.60;99.90
1778;DHT22;886;50.082;8.222;2023-03-31T05:06:01;11.60;99.90
1778;DHT22;886;50.082;8.222;2023-03-31T05:08:29;11.60;99.90
1778;DHT22;886;50.082;8.222;2023-03-31T05:10:58;11.50;99.90
1778;DHT22;886;50.082;8.222;2023-03-31T05:13:25;11.50;99.90
1778;DHT22;886;50.082;8.222;2023-03-31T05:15:52;11.50;99.90
1778;DHT22;886;50.082;8.222;2023-03-31T05:18:19;11.50;99.90
1778;DHT22;886;50.082;8.222;2023-03-31T05:20:47;11.50;99.90
1778;DHT22;886;50.082;8.222;2023-03-31T05:23:13;11.50;99.90
1778;DHT22;886;50.082;8.222;2023-03-31T05:25:41;11.60;99.90
1778;DHT22;886;50.082;8.222;2023-03-31T05:28:10;11.60;99.90
1778;DHT22;886;50.082;8.222;2023-03-31T05:30:36;11.70;99.90
1778;DHT22;886;50.082;8.222;2023-03-31T05:33:03;11.60;99.90
1778;DHT22;886;50.082;8.222;2023-03-31T05:35:30;11.70;99.90
1778;DHT22;886;50.082;8.222;2023-03-31T05:37:57;11.80;99.90
1778;DHT22;886;50.082;8.222;2023-03-31T05:40:24;11.80;99.90
1778;DHT22;886;50.082;8.222;2023-03-31T05:42:51;11.80;99.90
1778;DHT22;886;50.082;8.222;2023-03-31T05:45:20;11.80;99.90
1778;DHT22;886;50.082;8.222;2023-03-31T05:47:47;11.80;99.90
1778;DHT22;886;50.082;8.222;2023-03-31T05:50:14;11.90;99.90
1778;DHT22;886;50.082;8.222;2023-03-31T05:52:41;11.80;99.90
1778;DHT22;886;50.082;8.222;2023-03-31T05:55:09;11.80;99.90
1778;DHT22;886;50.082;8.222;2023-03-31T05:57:36;11.80;99.90
1778;DHT22;886;50.082;8.222;2023-03-31T06:01:25;11.80;99.90
1778;DHT22;886;50.082;8.222;2023-03-31T06:03:52;11.80;99.90
1778;DHT22;886;50.082;8.222;2023-03-31T06:06:19;11.80;99.90
1778;DHT22;886;50.082;8.222;2023-03-31T06:08:47;11.80;99.90
1778;DHT22;886;50.082;8.222;2023-03-31T06:11:16;11.80;99.90
1778;DHT22;886;50.082;8.222;2023-03-31T06:13:45;11.90;99.90
1778;DHT22;886;50.082;8.222;2023-03-31T06:16:14;11.80;99.90
1778;DHT22;886;50.082;8.222;2023-03-31T06:18:44;11.80;99.90
1778;DHT22;886;50.082;8.222;2023-03-31T06:21:14;11.80;99.90
1778;DHT22;886;50.082;8.222;2023-03-31T06:23:42;11.90;99.90
1778;DHT22;886;50.082;8.222;2023-03-31T06:26:12;11.80;99.90
1778;DHT22;886;50.082;8.222;2023-03-31T06:28:40;11.90;99.90
1778;DHT22;886;50.082;8.222;2023-03-31T06:31:13;11.80;99.90
1778;DHT22;886;50.082;8.222;2023-03-31T06:33:44;11.80;99.90
1778;DHT22;886;50.082;8.222;2023-03-31T06:36:12;11.80;99.90
1778;DHT22;886;50.082;8.222;2023-03-31T06:38:41;11.80;99.90
1778;DHT22;886;50.082;8.222;2023-03-31T06:41:11;11.80;99.90
1778;DHT22;886;50.082;8.222;2023-03-31T06:43:39;11.70;99.90
1778;DHT22;886;50.082;8.222;2023-03-31T06:46:07;11.80;99.90
1778;DHT22;886;50.082;8.222;2023-03-31T06:48:35;11.80;99.90
1778;DHT22;886;50.082;8.222;2023-03-31T06:51:06;11.80;99.90
1778;DHT22;886;50.082;8.222;2023-03-31T06:53:34;11.80;99.90
1778;DHT22;886;50.082;8.222;2023-03-31T06:56:03;11.80;99.90
1778;DHT22;886;50.082;8.222;2023-03-31T06:58:31;11.80;99.90
1778;DHT22;886;50.082;8.222;2023-03-31T07:01:01;11.80;99.90
1778;DHT22;886;50.082;8.222;2023-03-31T07:03:30;11.80;99.90
1778;DHT22;886;50.082;8.222;2023-03-31T07:05:57;11.80;99.90
1778;DHT22;886;50.082;8.222;2023-03-31T07:08:25;11.70;99.90
1778;DHT22;886;50.082;8.222;2023-03-31T07:10:54;11.80;99.90
1778;DHT22;886;50.082;8.222;2023-03-31T07:13:23;11.80;99.90
1778;DHT22;886;50.082;8.222;2023-03-31T07:15:52;11.70;99.90
1778;DHT22;886;50.082;8.222;2023-03-31T07:18:20;11.80;99.90
1778;DHT22;886;50.082;8.222;2023-03-31T07:20:52;11.80;99.90
1778;DHT22;886;50.082;8.222;2023-03-31T07:23:19;11.80;99.90
1778;DHT22;886;50.082;8.222;2023-03-31T07:25:48;11.80;99.90
1778;DHT22;886;50.082;8.222;2023-03-31T07:28:15;11.80;99.90
1778;DHT22;886;50.082;8.222;2023-03-31T07:30:43;11.90;99.90
1778;DHT22;886;50.082;8.222;2023-03-31T07:33:10;11.90;99.90
1778;DHT22;886;50.082;8.222;2023-03-31T07:35:38;11.90;99.90
1778;DHT22;886;50.082;8.222;2023-03-31T07:38:07;11.90;99.90
1778;DHT22;886;50.082;8.222;2023-03-31T07:40:35;11.90;99.90
1778;DHT22;886;50.082;8.222;2023-03-31T07:43:04;11.90;99.90
1778;DHT22;886;50.082;8.222;2023-03-31T07:45:32;12.00;99.90
1778;DHT22;886;50.082;8.222;2023-03-31T07:48:00;12.10;99.90
1778;DHT22;886;50.082;8.222;2023-03-31T07:50:27;12.10;99.90
1778;DHT22;886;50.082;8.222;2023-03-31T07:52:58;12.20;99.90
1778;DHT22;886;50.082;8.222;2023-03-31T07:55:25;12.10;99.90
1778;DHT22;886;50.082;8.222;2023-03-31T07:57:53;12.20;99.90
1778;DHT22;886;50.082;8.222;2023-03-31T08:00:22;12.30;99.90
1778;DHT22;886;50.082;8.222;2023-03-31T08:02:50;12.90;99.90
1778;DHT22;886;50.082;8.222;2023-03-31T08:05:19;13.50;99.90
1778;DHT22;886;50.082;8.222;2023-03-31T08:07:48;13.50;99.90
1778;DHT22;886;50.082;8.222;2023-03-31T08:10:18;13.50;99.90
1778;DHT22;886;50.082;8.222;2023-03-31T08:12:46;13.50;99.90
1778;DHT22;886;50.082;8.222;2023-03-31T08:15:13;13.80;99.90
1778;DHT22;886;50.082;8.222;2023-03-31T08:17:42;13.90;99.90
1778;DHT22;886;50.082;8.222;2023-03-31T08:20:10;13.70;99.90
1778;DHT22;886;50.082;8.222;2023-03-31T08:22:38;13.50;99.90
1778;DHT22;886;50.082;8.222;2023-03-31T08:25:07;13.40;99.90
1778;DHT22;886;50.082;8.222;2023-03-31T08:27:36;13.30;99.90
1778;DHT22;886;50.082;8.222;2023-03-31T08:30:05;13.20;99.90
1778;DHT22;886;50.082;8.222;2023-03-31T08:32:35;13.20;99.90
1778;DHT22;886;50.082;8.222;2023-03-31T08:35:04;13.20;99.90
1778;DHT22;886;50.082;8.222;2023-03-31T08:37:32;13.20;99.90
1778;DHT22;886;50.082;8.222;2023-03-31T08:40:00;13.20;99.90
1778;DHT22;886;50.082;8.222;2023-03-31T08:42:34;13.20;99.90
1778;DHT22;886;50.082;8.222;2023-03-31T08:45:06;13.10;99.90
1778;DHT22;886;50.082;8.222;2023-03-31T08:47:38;13.00;99.90
1778;DHT22;886;50.082;8.222;2023-03-31T08:50:11;13.00;99.90
1778;DHT22;886;50.082;8.222;2023-03-31T08:52:43;13.10;99.90
1778;DHT22;886;50.082;8.222;2023-03-31T08:55:17;13.00;99.90
1778;DHT22;886;50.082;8.222;2023-03-31T08:57:53;13.00;99.90
1778;DHT22;886;50.082;8.222;2023-03-31T09:00:22;13.10;99.90
1778;DHT22;886;50.082;8.222;2023-03-31T09:02:54;13.30;99.90
1778;DHT22;886;50.082;8.222;2023-03-31T09:05:36;13.40;99.90
1778;DHT22;886;50.082;8.222;2023-03-31T09:08:32;13.60;99.90
1778;DHT22;886;50.082;8.222;2023-03-31T09:11:13;13.80;99.90
1778;DHT22;886;50.082;8.222;2023-03-31T09:13:58;13.80;99.90
1778;DHT22;886;50.082;8.222;2023-03-31T09:16:34;14.00;99.90
1778;DHT22;886;50.082;8.222;2023-03-31T09:19:12;14.20;99.90
1778;DHT22;886;50.082;8.222;2023-03-31T09:21:46;14.30;99.90
1778;DHT22;886;50.082;8.222;2023-03-31T09:24:17;14.40;99.90
1778;DHT22;886;50.082;8.222;2023-03-31T09:26:51;14.40;99.90
1778;DHT22;886;50.082;8.222;2023-03-31T09:29:41;14.60;99.90
1778;DHT22;886;50.082;8.222;2023-03-31T09:32:14;14.60;99.90
1778;DHT22;886;50.082;8.222;2023-03-31T09:34:43;14.40;99.90
1778;DHT22;886;50.082;8.222;2023-03-31T09:37:13;14.40;99.90
1778;DHT22;886;50.082;8.222;2023-03-31T09:39:40;14.20;99.90
1778;DHT22;886;50.082;8.222;2023-03-31T09:42:10;14.30;99.90
1778;DHT22;886;50.082;8.222;2023-03-31T09:44:39;14.30;99.90
1778;DHT22;886;50.082;8.222;2023-03-31T09:47:12;14.30;99.90
1778;DHT22;886;50.082;8.222;2023-03-31T09:49:44;14.30;99.90
1778;DHT22;886;50.082;8.222;2023-03-31T09:52:27;14.20;99.90
1778;DHT22;886;50.082;8.222;2023-03-31T09:54:59;14.20;99.90
1778;DHT22;886;50.082;8.222;2023-03-31T09:57:29;14.20;99.90
1778;DHT22;886;50.082;8.222;2023-03-31T10:00:05;14.30;99.90
1778;DHT22;886;50.082;8.222;2023-03-31T10:02:42;14.30;99.90
1778;DHT22;886;50.082;8.222;2023-03-31T10:05:23;14.20;99.90
1778;DHT22;886;50.082;8.222;2023-03-31T10:08:13;14.20;99.90
1778;DHT22;886;50.082;8.222;2023-03-31T10:10:48;14.20;99.90
1778;DHT22;886;50.082;8.222;2023-03-31T10:13:19;14.10;99.90
1778;DHT22;886;50.082;8.222;2023-03-31T10:15:51;13.90;99.90
1778;DHT22;886;50.082;8.222;2023-03-31T10:18:20;13.60;99.90
1778;DHT22;886;50.082;8.222;2023-03-31T10:20:59;13.60;99.90
1778;DHT22;886;50.082;8.222;2023-03-31T10:23:31;13.60;99.90
1778;DHT22;886;50.082;8.222;2023-03-31T10:25:59;13.60;99.90
1778;DHT22;886;50.082;8.222;2023-03-31T10:28:30;13.50;99.90
1778;DHT22;886;50.082;8.222;2023-03-31T10:30:59;13.60;99.90
1778;DHT22;886;50.082;8.222;2023-03-31T10:33:29;13.50;99.90
1778;DHT22;886;50.082;8.222;2023-03-31T10:36:05;13.50;99.90
1778;DHT22;886;50.082;8.222;2023-03-31T10:38:37;13.40;99.90
1778;DHT22;886;50.082;8.222;2023-03-31T10:41:06;13.40;99.90
1778;DHT22;886;50.082;8.222;2023-03-31T10:43:37;13.40;99.90
1778;DHT22;886;50.082;8.222;2023-03-31T10:46:07;13.50;99.90
1778;DHT22;886;50.082;8.222;2023-03-31T10:48:36;13.50;99.90
1778;DHT22;886;50.082;8.222;2023-03-31T10:51:11;13.60;99.90
1778;DHT22;886;50.082;8.222;2023-03-31T10:53:43;13.70;99.90
1778;DHT22;886;50.082;8.222;2023-03-31T10:56:28;13.90;99.90
1778;DHT22;886;50.082;8.222;2023-03-31T10:59:11;14.00;99.90
1778;DHT22;886;50.082;8.222;2023-03-31T11:01:55;14.10;99.90
1778;DHT22;886;50.082;8.222;2023-03-31T11:04:46;14.30;99.90
1778;DHT22;886;50.082;8.222;2023-03-31T11:07:33;14.40;99.90
1778;DHT22;886;50.082;8.222;2023-03-31T11:10:22;14.50;99.90
1778;DHT22;886;50.082;8.222;2023-03-31T11:13:04;14.70;99.90
1778;DHT22;886;50.082;8.222;2023-03-31T11:15:39;14.80;99.90
1778;DHT22;886;50.082;8.222;2023-03-31T11:18:31;14.80;99.90
1778;DHT22;886;50.082;8.222;2023-03-31T11:21:12;14.80;99.90
1778;DHT22;886;50.082;8.222;2023-03-31T11:23:52;14.80;99.90
1778;DHT22;886;50.082;8.222;2023-03-31T11:26:32;14.80;99.90
1778;DHT22;886;50.082;8.222;2023-03-31T11:29:14;14.80;99.90
1778;DHT22;886;50.082;8.222;2023-03-31T11:31:51;14.70;99.90
1778;DHT22;886;50.082;8.222;2023-03-31T11:34:42;14.70;99.90
1778;DHT22;886;50.082;8.222;2023-03-31T11:40:25;14.80;99.90
1778;DHT22;886;50.082;8.222;2023-03-31T11:43:04;14.80;99.90
1778;DHT22;886;50.082;8.222;2023-03-31T11:45:37;14.80;99.90
1778;DHT22;886;50.082;8.222;2023-03-31T11:48:13;14.80;99.90
1778;DHT22;886;50.082;8.222;2023-03-31T11:50:45;14.90;99.90
1778;DHT22;886;50.082;8.222;2023-03-31T11:53:16;15.00;99.90
1778;DHT22;886;50.082;8.222;2023-03-31T11:55:46;15.00;99.90
1778;DHT22;886;50.082;8.222;2023-03-31T11:58:21;15.00;99.90
1778;DHT22;886;50.082;8.222;2023-03-31T12:00:51;15.00;99.90
1778;DHT22;886;50.082;8.222;2023-03-31T12:03:22;15.00;99.90
1778;DHT22;886;50.082;8.222;2023-03-31T12:05:57;14.90;99.90
1778;DHT22;886;50.082;8.222;2023-03-31T12:08:34;14.80;99.90
1778;DHT22;886;50.082;8.222;2023-03-31T12:11:06;14.70;99.90
1778;DHT22;886;50.082;8.222;2023-03-31T12:13:43;14.50;99.90
1778;DHT22;886;50.082;8.222;2023-03-31T12:16:16;14.50;99.90
1778;DHT22;886;50.082;8.222;2023-03-31T12:18:56;14.40;99.90
1778;DHT22;886;50.082;8.222;2023-03-31T12:21:29;14.40;99.90
1778;DHT22;886;50.082;8.222;2023-03-31T12:23:58;14.30;99.90
1778;DHT22;886;50.082;8.222;2023-03-31T12:26:35;14.30;99.90
1778;DHT22;886;50.082;8.222;2023-03-31T12:29:20;14.30;99.90
1778;DHT22;886;50.082;8.222;2023-03-31T12:31:52;14.30;99.90
1778;DHT22;886;50.082;8.222;2023-03-31T12:34:22;14.40;99.90
1778;DHT22;886;50.082;8.222;2023-03-31T12:40:09;14.50;99.90
1778;DHT22;886;50.082;8.222;2023-03-31T12:42:56;14.60;99.90
1778;DHT22;886;50.082;8.222;2023-03-31T12:45:36;14.60;99.90
1778;DHT22;886;50.082;8.222;2023-03-31T12:48:27;14.70;99.90
1778;DHT22;886;50.082;8.222;2023-03-31T12:51:22;14.70;99.90
1778;DHT22;886;50.082;8.222;2023-03-31T12:54:13;14.70;99.90
1778;DHT22;886;50.082;8.222;2023-03-31T12:57:13;14.70;99.90
1778;DHT22;886;50.082;8.222;2023-03-31T13:00:21;14.70;99.90
1778;DHT22;886;50.082;8.222;2023-03-31T13:06:49;14.80;99.90
1778;DHT22;886;50.082;8.222;2023-03-31T13:09:42;14.90;99.90
1778;DHT22;886;50.082;8.222;2023-03-31T13:12:16;15.00;99.90
1778;DHT22;886;50.082;8.222;2023-03-31T13:14:45;15.00;99.90
1778;DHT22;886;50.082;8.222;2023-03-31T13:17:24;15.10;99.90
1778;DHT22;886;50.082;8.222;2023-03-31T13:19:56;15.10;99.90
1778;DHT22;886;50.082;8.222;2023-03-31T13:22:29;15.10;99.90
1778;DHT22;886;50.082;8.222;2023-03-31T13:28:37;15.10;99.90
1778;DHT22;886;50.082;8.222;2023-03-31T13:31:07;15.20;99.90
1778;DHT22;886;50.082;8.222;2023-03-31T13:33:41;15.10;99.90
1778;DHT22;886;50.082;8.222;2023-03-31T13:36:40;15.10;99.90
1778;DHT22;886;50.082;8.222;2023-03-31T13:39:39;15.20;99.90
1778;DHT22;886;50.082;8.222;2023-03-31T13:42:30;15.20;99.90
1778;DHT22;886;50.082;8.222;2023-03-31T13:45:23;15.20;99.90
1778;DHT22;886;50.082;8.222;2023-03-31T13:48:04;15.20;99.90
1778;DHT22;886;50.082;8.222;2023-03-31T13:50:52;15.20;99.90
1778;DHT22;886;50.082;8.222;2023-03-31T13:53:32;15.20;99.90
1778;DHT22;886;50.082;8.222;2023-03-31T13:56:24;15.20;99.90
1778;DHT22;886;50.082;8.222;2023-03-31T13:59:28;15.30;99.90
1778;DHT22;886;50.082;8.222;2023-03-31T14:02:20;15.30;99.90
1778;DHT22;886;50.082;8.222;2023-03-31T14:05:16;15.30;99.90
1778;DHT22;886;50.082;8.222;2023-03-31T14:07:54;15.30;99.90
1778;DHT22;886;50.082;8.222;2023-03-31T14:10:26;15.30;99.90
1778;DHT22;886;50.082;8.222;2023-03-31T14:13:08;15.40;99.90
1778;DHT22;886;50.082;8.222;2023-03-31T14:15:37;15.40;99.90
1778;DHT22;886;50.082;8.222;2023-03-31T14:18:10;15.40;99.90
1778;DHT22;886;50.082;8.222;2023-03-31T14:20:44;15.50;99.90
1778;DHT22;886;50.082;8.222;2023-03-31T14:23:35;15.50;99.90
1778;DHT22;886;50.082;8.222;2023-03-31T14:26:14;15.50;99.90
1778;DHT22;886;50.082;8.222;2023-03-31T14:29:00;15.50;99.90
1778;DHT22;886;50.082;8.222;2023-03-31T14:31:41;15.50;99.80
1778;DHT22;886;50.082;8.222;2023-03-31T14:34:24;15.50;99.60
1778;DHT22;886;50.082;8.222;2023-03-31T14:37:00;15.50;99.60
1778;DHT22;886;50.082;8.222;2023-03-31T14:39:30;15.40;99.50
1778;DHT22;886;50.082;8.222;2023-03-31T14:42:03;15.40;99.70
1778;DHT22;886;50.082;8.222;2023-03-31T14:44:33;15.40;99.90
1778;DHT22;886;50.082;8.222;2023-03-31T14:47:00;15.40;99.90
1778;DHT22;886;50.082;8.222;2023-03-31T14:49:33;15.30;99.90
1778;DHT22;886;50.082;8.222;2023-03-31T14:52:10;15.20;99.90
1778;DHT22;886;50.082;8.222;2023-03-31T14:54:39;15.20;99.90
1778;DHT22;886;50.082;8.222;2023-03-31T14:57:10;15.10;99.90
1778;DHT22;886;50.082;8.222;2023-03-31T14:59:39;15.00;99.90
1778;DHT22;886;50.082;8.222;2023-03-31T15:02:13;15.00;99.90
1778;DHT22;886;50.082;8.222;2023-03-31T15:04:43;15.00;99.90
1778;DHT22;886;50.082;8.222;2023-03-31T15:07:15;15.00;99.90
1778;DHT22;886;50.082;8.222;2023-03-31T15:09:46;14.90;99.90
1778;DHT22;886;50.082;8.222;2023-03-31T15:12:19;14.70;99.90
1778;DHT22;886;50.082;8.222;2023-03-31T15:14:51;14.70;99.90
1778;DHT22;886;50.082;8.222;2023-03-31T15:17:21;14.70;99.90
1778;DHT22;886;50.082;8.222;2023-03-31T15:19:55;14.70;99.90
1778;DHT22;886;50.082;8.222;2023-03-31T15:22:25;14.70;99.90
1778;DHT22;886;50.082;8.222;2023-03-31T15:24:54;14.70;99.90
1778;DHT22;886;50.082;8.222;2023-03-31T15:27:31;14.80;99.90
1778;DHT22;886;50.082;8.222;2023-03-31T15:30:05;14.80;99.90
1778;DHT22;886;50.082;8.222;2023-03-31T15:32:35;14.80;99.90
1778;DHT22;886;50.082;8.222;2023-03-31T15:35:05;14.70;99.90
1778;DHT22;886;50.082;8.222;2023-03-31T15:37:48;14.70;99.90
1778;DHT22;886;50.082;8.222;2023-03-31T15:40:18;14.70;99.90
1778;DHT22;886;50.082;8.222;2023-03-31T15:42:51;14.70;99.90
1778;DHT22;886;50.082;8.222;2023-03-31T15:45:44;14.70;99.90
1778;DHT22;886;50.082;8.222;2023-03-31T15:48:25;14.60;99.90
1778;DHT22;886;50.082;8.222;2023-03-31T15:50:59;14.60;99.90
1778;DHT22;886;50.082;8.222;2023-03-31T15:53:30;14.60;99.90
1778;DHT22;886;50.082;8.222;2023-03-31T15:55:59;14.60;99.90
1778;DHT22;886;50.082;8.222;2023-03-31T15:58:54;14.50;99.90
1778;DHT22;886;50.082;8.222;2023-03-31T16:01:26;14.40;99.90
1778;DHT22;886;50.082;8.222;2023-03-31T16:03:56;14.50;99.90
1778;DHT22;886;50.082;8.222;2023-03-31T16:06:31;14.50;99.90
1778;DHT22;886;50.082;8.222;2023-03-31T16:09:05;14.50;99.90
1778;DHT22;886;50.082;8.222;2023-03-31T16:11:36;14.50;99.90
1778;DHT22;886;50.082;8.222;2023-03-31T16:14:11;14.40;99.90
1778;DHT22;886;50.082;8.222;2023-03-31T16:16:49;14.40;99.90
1778;DHT22;886;50.082;8.222;2023-03-31T16:19:20;14.30;99.90
1778;DHT22;886;50.082;8.222;2023-03-31T16:21:52;14.30;99.90
1778;DHT22;886;50.082;8.222;2023-03-31T16:24:28;14.10;99.90
1778;DHT22;886;50.082;8.222;2023-03-31T16:26:59;14.00;99.90
1778;DHT22;886;50.082;8.222;2023-03-31T16:29:29;14.00;99.90
1778;DHT22;886;50.082;8.222;2023-03-31T16:32:08;14.00;99.90
1778;DHT22;886;50.082;8.222;2023-03-31T16:34:51;14.10;99.90
1778;DHT22;886;50.082;8.222;2023-03-31T16:37:20;14.10;99.90
1778;DHT22;886;50.082;8.222;2023-03-31T16:39:47;14.00;99.90
1778;DHT22;886;50.082;8.222;2023-03-31T16:42:14;14.00;99.90
1778;DHT22;886;50.082;8.222;2023-03-31T16:44:43;14.00;99.90
1778;DHT22;886;50.082;8.222;2023-03-31T16:47:34;14.10;99.90
1778;DHT22;886;50.082;8.222;2023-03-31T16:50:02;14.10;99.90
1778;DHT22;886;50.082;8.222;2023-03-31T16:52:33;14.10;99.90
1778;DHT22;886;50.082;8.222;2023-03-31T16:55:03;14.10;99.90
1778;DHT22;886;50.082;8.222;2023-03-31T16:57:30;14.10;99.90
1778;DHT22;886;50.082;8.222;2023-03-31T16:59:59;14.10;99.90
1778;DHT22;886;50.082;8.222;2023-03-31T17:02:26;14.10;99.90
1778;DHT22;886;50.082;8.222;2023-03-31T17:04:53;14.10;99.90
1778;DHT22;886;50.082;8.222;2023-03-31T17:07:31;14.10;99.90
1778;DHT22;886;50.082;8.222;2023-03-31T17:09:59;14.10;99.90
1778;DHT22;886;50.082;8.222;2023-03-31T17:12:26;14.10;99.90
1778;DHT22;886;50.082;8.222;2023-03-31T17:14:53;14.00;99.90
1778;DHT22;886;50.082;8.222;2023-03-31T17:17:22;14.00;99.90
1778;DHT22;886;50.082;8.222;2023-03-31T17:19:49;14.00;99.90
1778;DHT22;886;50.082;8.222;2023-03-31T17:22:17;14.00;99.90
1778;DHT22;886;50.082;8.222;2023-03-31T17:24:44;14.00;99.90
1778;DHT22;886;50.082;8.222;2023-03-31T17:27:12;14.00;99.90
1778;DHT22;886;50.082;8.222;2023-03-31T17:29:39;14.00;99.90